Terminal Aerodrome Forecast
Issued by NWS

Home | Current Version | Previous Version | Text Only | Print | Product List | Glossary On
Versions: 1 2 3 4 5 6 7 8 9 10 11 12 13 14 15 16 17 18
000
FTUS45 KGJT 090621 AAA
TAFTEX
TAF AMD
KTEX 090621Z 0906/1006 10006KT 1SM -SN BKN005 OVC010
     FM090700 01005KT P6SM VCSH OVC040
     FM091200 35005KT P6SM OVC040
     FM091600 23008KT P6SM BKN060
     FM092000 26005KT P6SM SCT060=

USA.gov is the U.S. government's official web portal to all federal, state and local government web resources and services.